createdAt,value
2017-12-13T00:00:09.246Z,5.78
2017-12-13T00:01:09.146Z,5.85
2017-12-13T00:02:09.065Z,5.82
2017-12-13T00:03:08.971Z,5.89
2017-12-13T00:04:08.889Z,5.98
2017-12-13T00:05:08.810Z,5.92
2017-12-13T00:06:08.713Z,5.89
2017-12-13T00:07:08.627Z,5.91
2017-12-13T00:08:08.530Z,5.64
2017-12-13T00:09:08.445Z,5.77
2017-12-13T00:10:08.354Z,5.88
2017-12-13T00:11:08.274Z,5.91
2017-12-13T00:12:08.182Z,5.91
2017-12-13T00:13:08.098Z,5.83
2017-12-13T00:14:08.011Z,5.91
2017-12-13T00:15:07.920Z,5.83
2017-12-13T00:16:07.825Z,5.86
2017-12-13T00:17:07.742Z,5.95
2017-12-13T00:18:07.647Z,5.89
2017-12-13T00:19:07.564Z,5.73
2017-12-13T00:20:07.470Z,5.81
2017-12-13T00:21:07.395Z,5.73
2017-12-13T00:22:07.299Z,5.81
2017-12-13T00:23:07.214Z,5.89
2017-12-13T00:24:07.133Z,5.86
2017-12-13T00:25:07.033Z,5.86
2017-12-13T00:26:06.943Z,5.86
2017-12-13T00:27:06.859Z,5.85
2017-12-13T00:28:06.773Z,5.89
2017-12-13T00:29:06.678Z,5.88
2017-12-13T00:30:06.584Z,5.81
2017-12-13T00:31:06.512Z,5.81
2017-12-13T00:32:06.422Z,5.81
2017-12-13T00:33:06.326Z,5.81
2017-12-13T00:34:06.235Z,5.82
2017-12-13T00:35:06.142Z,5.85
2017-12-13T00:36:06.059Z,5.88
2017-12-13T00:37:05.975Z,5.78
2017-12-13T00:38:05.883Z,5.88
2017-12-13T00:39:05.797Z,5.70
2017-12-13T00:40:05.707Z,5.64
2017-12-13T00:41:05.623Z,5.55
2017-12-13T00:42:05.531Z,5.73
2017-12-13T00:43:05.442Z,5.75
2017-12-13T00:44:05.345Z,5.74
2017-12-13T00:45:06.152Z,5.74
2017-12-13T00:46:05.177Z,5.81
2017-12-13T00:47:05.088Z,5.68
2017-12-13T00:48:04.998Z,5.77
2017-12-13T00:49:04.914Z,5.75
2017-12-13T00:50:04.819Z,5.74
2017-12-13T00:51:04.731Z,5.78
2017-12-13T00:52:04.665Z,5.20
2017-12-13T00:53:04.557Z,5.19
2017-12-13T00:54:04.477Z,5.38
2017-12-13T00:55:04.374Z,5.53
2017-12-13T00:56:04.286Z,5.67
2017-12-13T00:57:04.199Z,5.56
2017-12-13T00:58:04.102Z,5.20
2017-12-13T00:59:04.018Z,5.34
2017-12-13T01:00:03.934Z,5.45
2017-12-13T01:01:03.839Z,5.59
2017-12-13T01:02:03.749Z,5.64
2017-12-13T01:03:03.660Z,5.53
2017-12-13T01:04:03.567Z,5.63
2017-12-13T01:05:03.479Z,5.56
2017-12-13T01:06:03.386Z,5.60
2017-12-13T01:07:03.301Z,5.74
2017-12-13T01:08:03.208Z,5.71
2017-12-13T01:09:03.121Z,5.78
2017-12-13T01:10:03.034Z,5.64
2017-12-13T01:11:02.943Z,5.46
2017-12-13T01:12:02.856Z,5.55
2017-12-13T01:13:02.769Z,5.66
2017-12-13T01:14:02.669Z,5.75
2017-12-13T01:15:02.587Z,5.75
2017-12-13T01:16:02.493Z,5.75
2017-12-13T01:17:02.410Z,5.75
2017-12-13T01:18:02.319Z,5.78
2017-12-13T01:19:02.240Z,5.70
2017-12-13T01:20:02.141Z,5.75
2017-12-13T01:21:02.052Z,5.75
2017-12-13T01:22:01.961Z,5.85
2017-12-13T01:23:01.880Z,5.74
2017-12-13T01:24:01.777Z,5.60
2017-12-13T01:25:01.689Z,5.56
2017-12-13T01:26:01.598Z,5.67
2017-12-13T01:27:01.506Z,5.73
2017-12-13T01:28:01.419Z,5.75
2017-12-13T01:29:01.329Z,5.73
2017-12-13T01:30:01.234Z,5.71
2017-12-13T01:31:01.155Z,5.73
2017-12-13T01:32:01.063Z,5.74
2017-12-13T01:33:00.970Z,5.81
2017-12-13T01:34:00.884Z,5.75
2017-12-13T01:35:00.794Z,5.73
2017-12-13T01:36:00.701Z,5.60
2017-12-13T01:37:00.618Z,5.74
2017-12-13T01:38:00.522Z,5.77
2017-12-13T01:39:00.434Z,5.63
2017-12-13T01:40:00.343Z,5.66
2017-12-13T01:41:00.258Z,5.81
2017-12-13T01:42:00.167Z,5.83
2017-12-13T01:43:00.085Z,5.77
2017-12-13T01:44:00.706Z,5.81
2017-12-13T01:44:59.907Z,5.59
2017-12-13T01:45:59.809Z,5.67
2017-12-13T01:46:59.718Z,5.71
2017-12-13T01:47:59.645Z,5.63
2017-12-13T01:48:59.538Z,5.67
2017-12-13T01:49:59.448Z,5.66
2017-12-13T01:50:59.362Z,5.63
2017-12-13T01:51:59.275Z,5.81
2017-12-13T01:52:59.191Z,5.70
2017-12-13T01:53:59.096Z,5.81
2017-12-13T01:54:59.004Z,5.50
2017-12-13T01:55:58.912Z,5.40
2017-12-13T01:56:58.834Z,5.52
2017-12-13T01:57:58.744Z,5.63
2017-12-13T01:58:58.658Z,5.63
2017-12-13T01:59:58.557Z,5.60
2017-12-13T02:00:58.463Z,5.67
2017-12-13T02:01:58.374Z,5.68
2017-12-13T02:02:58.299Z,5.63
2017-12-13T02:03:58.202Z,5.60
2017-12-13T02:04:58.101Z,5.75
2017-12-13T02:05:58.017Z,5.73
2017-12-13T02:06:57.931Z,5.63
2017-12-13T02:07:57.853Z,5.78
2017-12-13T02:08:57.754Z,5.75
2017-12-13T02:09:57.662Z,5.83
2017-12-13T02:10:57.575Z,5.83
2017-12-13T02:11:57.484Z,5.75
2017-12-13T02:12:57.395Z,5.68
2017-12-13T02:13:57.306Z,5.28
2017-12-13T02:14:57.218Z,5.43
2017-12-13T02:15:57.125Z,5.41
2017-12-13T02:16:57.036Z,5.38
2017-12-13T02:17:56.942Z,5.49
2017-12-13T02:18:56.861Z,5.63
2017-12-13T02:19:56.765Z,5.66
2017-12-13T02:20:56.674Z,5.55
2017-12-13T02:21:56.590Z,5.59
2017-12-13T02:22:56.506Z,5.57
2017-12-13T02:23:56.407Z,5.64
2017-12-13T02:24:56.321Z,5.71
2017-12-13T02:25:56.232Z,5.86
2017-12-13T02:26:56.143Z,5.88
2017-12-13T02:27:56.052Z,5.83
2017-12-13T02:28:55.967Z,5.85
2017-12-13T02:29:55.876Z,5.71
2017-12-13T02:30:55.792Z,5.85
2017-12-13T02:31:55.699Z,5.85
2017-12-13T02:32:55.629Z,5.81
2017-12-13T02:33:55.525Z,5.71
2017-12-13T02:34:55.431Z,5.70
2017-12-13T02:35:55.342Z,5.66
2017-12-13T02:36:55.276Z,5.57
2017-12-13T02:37:55.170Z,5.50
2017-12-13T02:38:55.080Z,5.35
2017-12-13T02:39:55.000Z,5.63
2017-12-13T02:40:54.903Z,5.45
2017-12-13T02:41:54.813Z,5.25
2017-12-13T02:42:55.287Z,5.23
2017-12-13T02:43:54.629Z,5.45
2017-12-13T02:44:54.541Z,5.38
2017-12-13T02:45:54.446Z,5.55
2017-12-13T02:46:54.365Z,5.57
2017-12-13T02:47:54.280Z,5.63
2017-12-13T02:48:54.177Z,5.68
2017-12-13T02:49:54.096Z,5.53
2017-12-13T02:50:54.016Z,5.59
2017-12-13T02:51:53.907Z,5.48
2017-12-13T02:52:53.826Z,5.59
2017-12-13T02:53:53.733Z,5.59
2017-12-13T02:54:53.657Z,5.59
2017-12-13T02:55:53.554Z,5.60
2017-12-13T02:56:53.463Z,5.49
2017-12-13T02:57:53.380Z,5.63
2017-12-13T02:58:53.285Z,5.64
2017-12-13T02:59:53.198Z,5.66
2017-12-13T03:00:53.114Z,5.66
2017-12-13T03:01:53.023Z,5.74
2017-12-13T03:02:52.929Z,5.77
2017-12-13T03:03:52.881Z,5.75
2017-12-13T03:04:52.747Z,5.63
2017-12-13T03:05:52.660Z,5.74
2017-12-13T03:06:52.569Z,5.71
2017-12-13T03:07:52.476Z,5.88
2017-12-13T03:08:52.395Z,5.66
2017-12-13T03:09:52.302Z,5.57
2017-12-13T03:10:52.227Z,5.74
2017-12-13T03:11:52.133Z,5.64
2017-12-13T03:12:52.031Z,5.64
2017-12-13T03:13:51.942Z,5.63
2017-12-13T03:14:51.848Z,5.74
2017-12-13T03:15:51.773Z,5.66
2017-12-13T03:16:51.685Z,5.59
2017-12-13T03:17:51.591Z,5.64
2017-12-13T03:18:51.497Z,5.59
2017-12-13T03:19:51.402Z,5.60
2017-12-13T03:20:51.317Z,5.66
2017-12-13T03:21:51.225Z,5.71
2017-12-13T03:22:51.135Z,5.63
2017-12-13T03:23:51.040Z,5.59
2017-12-13T03:24:50.954Z,5.64
2017-12-13T03:25:50.877Z,5.66
2017-12-13T03:26:50.780Z,5.63
2017-12-13T03:27:50.692Z,5.73
2017-12-13T03:28:50.597Z,5.88
2017-12-13T03:29:50.513Z,5.81
2017-12-13T03:30:50.415Z,5.73
2017-12-13T03:31:50.346Z,5.77
2017-12-13T03:32:50.240Z,5.73
2017-12-13T03:33:50.153Z,5.95
2017-12-13T03:34:50.072Z,5.93
2017-12-13T03:35:49.972Z,5.96
2017-12-13T03:36:49.882Z,5.96
2017-12-13T03:37:49.795Z,6.10
2017-12-13T03:38:49.707Z,6.11
2017-12-13T03:39:49.623Z,5.91
2017-12-13T03:40:49.527Z,5.92
2017-12-13T03:41:49.901Z,5.85
2017-12-13T03:42:49.360Z,5.86
2017-12-13T03:43:49.257Z,5.93
2017-12-13T03:44:49.171Z,5.89
2017-12-13T03:45:49.079Z,5.93
2017-12-13T03:46:49.014Z,5.93
2017-12-13T03:47:48.906Z,5.93
2017-12-13T03:48:48.825Z,5.91
2017-12-13T03:49:48.731Z,6.10
2017-12-13T03:50:48.639Z,5.98
2017-12-13T03:51:48.548Z,6.00
2017-12-13T03:52:48.460Z,5.78
2017-12-13T03:53:48.372Z,5.83
2017-12-13T03:54:48.276Z,5.91
2017-12-13T03:55:48.201Z,5.98
2017-12-13T03:56:48.104Z,5.96
2017-12-13T03:57:48.015Z,6.04
2017-12-13T03:58:47.924Z,5.98
2017-12-13T03:59:47.843Z,5.93
2017-12-13T04:00:47.749Z,6.04
2017-12-13T04:01:47.658Z,6.14
2017-12-13T04:02:47.569Z,6.11
2017-12-13T04:03:47.487Z,6.11
2017-12-13T04:04:47.411Z,6.04
2017-12-13T04:05:47.305Z,6.06
2017-12-13T04:06:47.212Z,6.03
2017-12-13T04:07:47.123Z,6.11
2017-12-13T04:08:47.034Z,6.01
2017-12-13T04:09:46.949Z,6.01
2017-12-13T04:10:46.860Z,6.14
2017-12-13T04:11:46.771Z,6.19
2017-12-13T04:12:46.686Z,6.19
2017-12-13T04:13:46.591Z,6.14
2017-12-13T04:14:46.505Z,5.95
2017-12-13T04:15:46.414Z,6.01
2017-12-13T04:16:46.341Z,6.13
2017-12-13T04:17:46.238Z,5.89
2017-12-13T04:18:46.149Z,6.00
2017-12-13T04:19:46.088Z,6.04
2017-12-13T04:20:45.976Z,6.14
2017-12-13T04:21:45.887Z,6.18
2017-12-13T04:22:45.802Z,6.32
2017-12-13T04:23:45.714Z,6.29
2017-12-13T04:24:45.622Z,6.21
2017-12-13T04:25:45.535Z,6.33
2017-12-13T04:26:45.447Z,6.09
2017-12-13T04:27:45.361Z,6.11
2017-12-13T04:28:45.270Z,6.09
2017-12-13T04:29:45.176Z,6.16
2017-12-13T04:30:45.099Z,6.19
2017-12-13T04:31:45.007Z,6.13
2017-12-13T04:32:44.919Z,6.13
2017-12-13T04:33:44.826Z,6.21
2017-12-13T04:34:44.739Z,6.21
2017-12-13T04:35:44.649Z,6.21
2017-12-13T04:36:44.561Z,6.18
2017-12-13T04:37:44.483Z,6.14
2017-12-13T04:38:44.390Z,6.11
2017-12-13T04:39:44.301Z,5.83
2017-12-13T04:40:44.469Z,6.00
2017-12-13T04:41:44.122Z,6.01
2017-12-13T04:42:44.027Z,6.18
2017-12-13T04:43:43.940Z,6.09
2017-12-13T04:44:43.856Z,6.18
2017-12-13T04:45:43.760Z,6.19
2017-12-13T04:46:43.672Z,6.00
2017-12-13T04:47:43.590Z,5.92
2017-12-13T04:48:43.512Z,5.92
2017-12-13T04:49:43.403Z,5.92
2017-12-13T04:50:43.323Z,5.92
2017-12-13T04:51:43.235Z,5.93
2017-12-13T04:52:43.147Z,6.04
2017-12-13T04:53:43.063Z,6.03
2017-12-13T04:54:42.967Z,5.78
2017-12-13T04:55:42.878Z,5.71
2017-12-13T04:56:42.790Z,5.73
2017-12-13T04:57:42.700Z,5.82
2017-12-13T04:58:42.619Z,5.63
2017-12-13T04:59:42.519Z,5.71
2017-12-13T05:00:42.431Z,5.73
2017-12-13T05:01:42.338Z,5.74
2017-12-13T05:02:42.254Z,5.66
2017-12-13T05:03:42.172Z,5.43
2017-12-13T05:04:42.080Z,5.49
2017-12-13T05:05:41.991Z,5.60
2017-12-13T05:06:41.900Z,5.63
2017-12-13T05:07:41.813Z,5.60
2017-12-13T05:08:41.726Z,5.60
2017-12-13T05:09:41.627Z,5.66
2017-12-13T05:10:41.546Z,5.68
2017-12-13T05:11:41.457Z,5.57
2017-12-13T05:12:41.369Z,5.60
2017-12-13T05:13:41.281Z,5.52
2017-12-13T05:14:41.188Z,5.56
2017-12-13T05:15:41.097Z,5.63
2017-12-13T05:16:41.008Z,5.45
2017-12-13T05:17:40.920Z,5.46
2017-12-13T05:18:40.837Z,5.50
2017-12-13T05:19:40.751Z,5.50
2017-12-13T05:20:40.667Z,5.59
2017-12-13T05:21:40.563Z,5.43
2017-12-13T05:22:40.469Z,5.45
2017-12-13T05:23:40.384Z,5.57
2017-12-13T05:24:40.300Z,5.48
2017-12-13T05:25:40.201Z,5.48
2017-12-13T05:26:40.113Z,5.46
2017-12-13T05:27:40.036Z,5.23
2017-12-13T05:28:39.945Z,5.16
2017-12-13T05:29:39.854Z,5.41
2017-12-13T05:30:39.762Z,5.57
2017-12-13T05:31:39.668Z,5.57
2017-12-13T05:32:39.572Z,5.63
2017-12-13T05:33:39.483Z,5.57
2017-12-13T05:34:39.399Z,5.63
2017-12-13T05:35:39.312Z,5.49
2017-12-13T05:36:39.231Z,5.68
2017-12-13T05:37:39.138Z,5.88
2017-12-13T05:38:39.050Z,5.75
2017-12-13T05:39:39.072Z,5.70
2017-12-13T05:40:38.867Z,5.63
2017-12-13T05:41:38.772Z,5.68
2017-12-13T05:42:38.684Z,5.70
2017-12-13T05:43:38.605Z,5.68
2017-12-13T05:44:38.514Z,5.41
2017-12-13T05:45:38.423Z,5.23
2017-12-13T05:46:38.331Z,5.41
2017-12-13T05:47:38.234Z,5.59
2017-12-13T05:48:38.147Z,5.63
2017-12-13T05:49:38.085Z,5.56
2017-12-13T05:50:37.978Z,5.59
2017-12-13T05:51:37.901Z,5.63
2017-12-13T05:52:37.801Z,5.66
2017-12-13T05:53:37.705Z,5.63
2017-12-13T05:54:37.613Z,5.63
2017-12-13T05:55:37.534Z,5.57
2017-12-13T05:56:37.440Z,5.71
2017-12-13T05:57:37.347Z,5.75
2017-12-13T05:58:37.268Z,5.73
2017-12-13T05:59:37.174Z,5.64
2017-12-13T06:00:37.084Z,5.68
2017-12-13T06:01:36.998Z,5.57
2017-12-13T06:02:36.905Z,5.66
2017-12-13T06:03:36.816Z,5.56
2017-12-13T06:04:36.732Z,5.64
2017-12-13T06:05:36.637Z,5.66
2017-12-13T06:06:36.558Z,5.68
2017-12-13T06:07:36.489Z,5.71
2017-12-13T06:08:36.380Z,5.50
2017-12-13T06:09:36.278Z,5.60
2017-12-13T06:10:36.193Z,5.60
2017-12-13T06:11:36.102Z,5.64
2017-12-13T06:12:36.018Z,5.73
2017-12-13T06:13:35.930Z,5.74
2017-12-13T06:14:35.839Z,5.73
2017-12-13T06:15:35.751Z,5.66
2017-12-13T06:16:35.659Z,5.59
2017-12-13T06:17:35.575Z,5.74
2017-12-13T06:18:35.478Z,5.40
2017-12-13T06:19:35.386Z,5.59
2017-12-13T06:20:35.317Z,5.64
2017-12-13T06:21:35.220Z,5.70
2017-12-13T06:22:35.153Z,5.63
2017-12-13T06:23:35.038Z,5.70
2017-12-13T06:24:34.947Z,5.56
2017-12-13T06:25:34.855Z,5.49
2017-12-13T06:26:34.767Z,5.63
2017-12-13T06:27:34.682Z,5.68
2017-12-13T06:28:34.594Z,5.73
2017-12-13T06:29:34.499Z,5.63
2017-12-13T06:30:34.418Z,5.68
2017-12-13T06:31:34.327Z,5.70
2017-12-13T06:32:34.250Z,5.71
2017-12-13T06:33:34.149Z,5.66
2017-12-13T06:34:34.061Z,5.64
2017-12-13T06:35:33.974Z,5.57
2017-12-13T06:36:33.884Z,5.46
2017-12-13T06:37:33.789Z,5.53
2017-12-13T06:38:33.718Z,5.27
2017-12-13T06:39:33.615Z,5.49
2017-12-13T06:40:33.523Z,5.46
2017-12-13T06:41:33.443Z,5.53
2017-12-13T06:42:33.366Z,5.48
2017-12-13T06:43:33.312Z,5.40
2017-12-13T06:44:33.166Z,5.41
2017-12-13T06:45:33.087Z,5.14
2017-12-13T06:46:32.989Z,5.40
2017-12-13T06:47:32.909Z,5.34
2017-12-13T06:48:32.813Z,5.38
2017-12-13T06:49:32.727Z,5.31
2017-12-13T06:50:32.643Z,5.35
2017-12-13T06:51:32.542Z,5.40
2017-12-13T06:52:32.455Z,5.38
2017-12-13T06:53:32.369Z,5.48
2017-12-13T06:54:32.275Z,5.46
2017-12-13T06:55:32.189Z,5.53
2017-12-13T06:56:32.121Z,5.43
2017-12-13T06:57:32.010Z,5.50
2017-12-13T06:58:31.925Z,5.63
2017-12-13T06:59:31.864Z,5.57
2017-12-13T07:00:31.742Z,5.41
2017-12-13T07:01:31.649Z,5.56
2017-12-13T07:02:31.575Z,5.27
2017-12-13T07:03:31.484Z,5.41
2017-12-13T07:04:31.385Z,5.41
2017-12-13T07:05:31.299Z,5.14
2017-12-13T07:06:31.209Z,5.09
2017-12-13T07:07:31.124Z,5.32
2017-12-13T07:08:31.968Z,5.38
2017-12-13T07:09:30.949Z,5.38
2017-12-13T07:10:30.856Z,5.52
2017-12-13T07:11:30.776Z,5.55
2017-12-13T07:12:30.673Z,5.53
2017-12-13T07:13:30.590Z,5.30
2017-12-13T07:14:30.499Z,5.35
2017-12-13T07:15:30.409Z,5.41
2017-12-13T07:16:30.319Z,5.41
2017-12-13T07:17:30.229Z,5.49
2017-12-13T07:18:30.142Z,5.52
2017-12-13T07:19:30.053Z,5.49
2017-12-13T07:20:30.045Z,5.46
2017-12-13T07:21:29.923Z,5.25
2017-12-13T07:22:29.787Z,5.31
2017-12-13T07:23:29.697Z,5.32
2017-12-13T07:24:29.612Z,5.41
2017-12-13T07:25:29.544Z,5.17
2017-12-13T07:26:29.426Z,5.34
2017-12-13T07:27:29.350Z,5.37
2017-12-13T07:28:29.277Z,5.32
2017-12-13T07:29:29.171Z,5.23
2017-12-13T07:30:29.062Z,5.20
2017-12-13T07:31:28.988Z,5.13
2017-12-13T07:32:28.899Z,5.14
2017-12-13T07:33:28.809Z,5.45
2017-12-13T07:34:28.713Z,5.28
2017-12-13T07:35:28.623Z,5.37
2017-12-13T07:36:28.568Z,5.28
2017-12-13T07:37:28.435Z,5.17
2017-12-13T07:38:28.354Z,5.34
2017-12-13T07:39:28.257Z,5.31
2017-12-13T07:40:28.173Z,5.43
2017-12-13T07:41:28.099Z,5.28
2017-12-13T07:42:28.006Z,5.31
2017-12-13T07:43:27.934Z,5.31
2017-12-13T07:44:27.817Z,5.23
2017-12-13T07:45:27.733Z,5.27
2017-12-13T07:46:27.638Z,5.27
2017-12-13T07:47:27.546Z,5.35
2017-12-13T07:48:27.477Z,5.38
2017-12-13T07:49:27.376Z,5.41
2017-12-13T07:50:27.302Z,5.43
2017-12-13T07:51:27.194Z,5.45
2017-12-13T07:52:27.116Z,5.37
2017-12-13T07:53:27.043Z,5.37
2017-12-13T07:54:26.930Z,5.32
2017-12-13T07:55:26.875Z,5.43
2017-12-13T07:56:26.757Z,5.45
2017-12-13T07:57:26.663Z,5.40
2017-12-13T07:58:26.585Z,5.32
2017-12-13T07:59:26.499Z,5.37
2017-12-13T08:00:26.457Z,5.46
2017-12-13T08:01:26.305Z,5.63
2017-12-13T08:02:26.227Z,5.41
2017-12-13T08:03:26.129Z,5.46
2017-12-13T08:04:26.037Z,5.48
2017-12-13T08:05:25.954Z,5.59
2017-12-13T08:06:25.863Z,5.59
2017-12-13T08:07:26.612Z,5.78
2017-12-13T08:08:25.686Z,5.81
2017-12-13T08:09:25.603Z,5.81
2017-12-13T08:10:25.535Z,5.74
2017-12-13T08:11:25.429Z,5.70
2017-12-13T08:12:25.346Z,5.77
2017-12-13T08:13:25.255Z,5.93
2017-12-13T08:14:25.187Z,6.18
2017-12-13T08:15:25.080Z,6.59
2017-12-13T08:16:24.988Z,6.97
2017-12-13T08:17:24.942Z,7.19
2017-12-13T08:18:24.817Z,7.50
2017-12-13T08:19:24.727Z,7.77
2017-12-13T08:20:24.643Z,8.10
2017-12-13T08:21:24.558Z,8.20
2017-12-13T08:22:24.477Z,8.53
2017-12-13T08:23:24.396Z,8.55
2017-12-13T08:24:24.295Z,8.42
2017-12-13T08:25:24.210Z,8.28
2017-12-13T08:26:24.137Z,8.37
2017-12-13T08:27:24.045Z,8.65
2017-12-13T08:28:23.952Z,8.86
2017-12-13T08:29:23.882Z,8.94
2017-12-13T08:30:23.787Z,8.96
2017-12-13T08:31:23.706Z,8.81
2017-12-13T08:32:23.642Z,9.04
2017-12-13T08:33:23.545Z,9.25
2017-12-13T08:34:23.448Z,9.53
2017-12-13T08:35:23.362Z,9.70
2017-12-13T08:36:23.280Z,9.93
2017-12-13T08:37:23.214Z,10.10
2017-12-13T08:38:23.116Z,10.30
2017-12-13T08:39:23.035Z,10.59
2017-12-13T08:40:22.971Z,10.70
2017-12-13T08:41:22.868Z,10.66
2017-12-13T08:42:22.788Z,10.89
2017-12-13T08:43:22.730Z,10.78
2017-12-13T08:44:22.708Z,10.56
2017-12-13T08:45:22.542Z,10.55
2017-12-13T08:46:22.477Z,10.53
2017-12-13T08:47:22.390Z,10.92
2017-12-13T08:48:22.316Z,10.95
2017-12-13T08:49:22.217Z,11.16
2017-12-13T08:50:22.140Z,11.38
2017-12-13T08:51:22.056Z,11.57
2017-12-13T08:52:21.970Z,11.59
2017-12-13T08:53:21.891Z,11.70
2017-12-13T08:54:21.821Z,11.77
2017-12-13T08:55:21.730Z,11.83
2017-12-13T08:56:21.655Z,11.97
2017-12-13T08:57:21.571Z,12.19
2017-12-13T08:58:21.503Z,12.05
2017-12-13T08:59:21.401Z,12.24
2017-12-13T09:00:21.331Z,12.34
2017-12-13T09:01:21.251Z,12.34
2017-12-13T09:02:21.168Z,12.39
2017-12-13T09:03:21.097Z,12.56
2017-12-13T09:04:21.003Z,12.64
2017-12-13T09:05:20.932Z,12.67
2017-12-13T09:06:21.353Z,12.69
2017-12-13T09:07:20.778Z,12.59
2017-12-13T09:08:20.687Z,12.82
2017-12-13T09:09:20.611Z,12.74
2017-12-13T09:10:20.529Z,12.79
2017-12-13T09:11:20.450Z,12.88
2017-12-13T09:12:20.375Z,13.20
2017-12-13T09:13:20.291Z,13.02
2017-12-13T09:14:20.218Z,13.07
2017-12-13T09:15:20.147Z,13.15
2017-12-13T09:16:20.050Z,13.03
2017-12-13T09:17:20.027Z,13.37
2017-12-13T09:18:19.900Z,13.27
2017-12-13T09:19:19.815Z,13.44
2017-12-13T09:20:19.736Z,13.62
2017-12-13T09:21:19.660Z,13.62
2017-12-13T09:22:19.592Z,13.63
2017-12-13T09:23:19.498Z,13.73
2017-12-13T09:24:19.425Z,13.55
2017-12-13T09:25:19.344Z,12.87
2017-12-13T09:26:19.265Z,13.32
2017-12-13T09:27:19.192Z,12.52
2017-12-13T09:28:19.097Z,13.02
2017-12-13T09:29:19.067Z,12.64
2017-12-13T09:30:18.941Z,12.49
2017-12-13T09:31:18.878Z,12.15
2017-12-13T09:32:18.779Z,12.70
2017-12-13T09:33:18.695Z,13.07
2017-12-13T09:34:18.635Z,13.77
2017-12-13T09:35:18.530Z,14.02
2017-12-13T09:36:18.454Z,13.99
2017-12-13T09:37:18.365Z,14.20
2017-12-13T09:38:18.287Z,14.02
2017-12-13T09:39:18.204Z,14.07
2017-12-13T09:40:18.129Z,13.43
2017-12-13T09:41:18.043Z,12.99
2017-12-13T09:42:17.964Z,13.07
2017-12-13T09:43:17.880Z,13.37
2017-12-13T09:44:17.800Z,13.74
2017-12-13T09:45:17.721Z,13.33
2017-12-13T09:46:17.639Z,13.20
2017-12-13T09:47:17.554Z,13.11
2017-12-13T09:48:17.482Z,13.32
2017-12-13T09:49:17.397Z,13.46
2017-12-13T09:50:17.309Z,13.61
2017-12-13T09:51:17.227Z,13.17
2017-12-13T09:52:17.168Z,11.72
2017-12-13T09:53:17.064Z,11.10
2017-12-13T09:54:16.977Z,11.61
2017-12-13T09:55:16.894Z,11.77
2017-12-13T09:56:16.819Z,12.27
2017-12-13T09:57:16.728Z,12.66
2017-12-13T09:58:16.641Z,13.12
2017-12-13T09:59:16.563Z,13.33
2017-12-13T10:00:16.472Z,13.46
2017-12-13T10:01:16.392Z,13.67
2017-12-13T10:02:16.315Z,13.94
2017-12-13T10:03:16.234Z,14.04
2017-12-13T10:04:16.147Z,14.17
2017-12-13T10:05:16.099Z,14.14
2017-12-13T10:06:15.996Z,13.21
2017-12-13T10:07:15.905Z,13.37
2017-12-13T10:08:15.858Z,13.22
2017-12-13T10:09:15.758Z,13.79
2017-12-13T10:10:15.676Z,14.16
2017-12-13T10:11:15.580Z,14.52
2017-12-13T10:12:15.496Z,13.56
2017-12-13T10:13:15.425Z,12.82
2017-12-13T10:14:15.345Z,13.06
2017-12-13T10:15:15.272Z,13.54
2017-12-13T10:16:15.173Z,13.99
2017-12-13T10:17:15.087Z,13.32
2017-12-13T10:18:15.013Z,13.62
2017-12-13T10:19:14.928Z,13.62
2017-12-13T10:20:14.849Z,13.52
2017-12-13T10:21:14.770Z,13.83
2017-12-13T10:22:14.683Z,13.61
2017-12-13T10:23:14.619Z,12.82
2017-12-13T10:24:14.519Z,13.22
2017-12-13T10:25:14.455Z,13.79
2017-12-13T10:26:14.359Z,13.63
2017-12-13T10:27:14.276Z,14.01
2017-12-13T10:28:14.193Z,13.58
2017-12-13T10:29:14.117Z,13.63
2017-12-13T10:30:14.040Z,14.19
2017-12-13T10:31:13.951Z,13.44
2017-12-13T10:32:13.874Z,13.63
2017-12-13T10:33:13.790Z,14.01
2017-12-13T10:34:13.708Z,13.98
2017-12-13T10:35:14.263Z,13.20
2017-12-13T10:36:13.575Z,13.76
2017-12-13T10:37:13.525Z,14.14
2017-12-13T10:38:13.390Z,14.38
2017-12-13T10:39:13.302Z,14.04
2017-12-13T10:40:13.220Z,13.88
2017-12-13T10:41:13.142Z,13.92
2017-12-13T10:42:13.057Z,13.03
2017-12-13T10:43:12.985Z,12.16
2017-12-13T10:44:12.908Z,12.23
2017-12-13T10:45:12.812Z,12.54
2017-12-13T10:46:12.732Z,12.56
2017-12-13T10:47:12.663Z,12.08
2017-12-13T10:48:12.565Z,11.13
2017-12-13T10:49:12.487Z,10.84
2017-12-13T10:50:12.416Z,11.72
2017-12-13T10:51:12.314Z,12.52
2017-12-13T10:52:12.228Z,12.26
2017-12-13T10:53:12.157Z,12.54
2017-12-13T10:54:12.068Z,12.93
2017-12-13T10:55:11.988Z,13.15
2017-12-13T10:56:11.910Z,12.57
2017-12-13T10:57:11.816Z,12.85
2017-12-13T10:58:11.745Z,13.21
2017-12-13T10:59:11.650Z,13.02
2017-12-13T11:00:11.574Z,12.71
2017-12-13T11:01:11.495Z,12.85
2017-12-13T11:02:11.407Z,12.85
2017-12-13T11:03:11.329Z,12.66
2017-12-13T11:04:11.250Z,12.69
2017-12-13T11:05:11.164Z,12.37
2017-12-13T11:06:11.101Z,12.54
2017-12-13T11:07:11.005Z,11.77
2017-12-13T11:08:10.954Z,11.77
2017-12-13T11:09:10.837Z,12.06
2017-12-13T11:10:10.761Z,11.74
2017-12-13T11:11:10.661Z,11.82
2017-12-13T11:12:10.577Z,11.59
2017-12-13T11:13:10.511Z,11.78
2017-12-13T11:14:10.422Z,11.46
2017-12-13T11:15:10.337Z,11.24
2017-12-13T11:16:10.258Z,11.38
2017-12-13T11:17:10.157Z,11.57
2017-12-13T11:18:10.073Z,11.99
2017-12-13T11:19:11.969Z,12.01
2017-12-13T11:20:09.908Z,12.11
2017-12-13T11:21:09.848Z,11.41
2017-12-13T11:22:09.728Z,11.07
2017-12-13T11:23:09.649Z,10.89
2017-12-13T11:24:09.565Z,10.95
2017-12-13T11:25:09.514Z,11.01
2017-12-13T11:26:09.400Z,10.86
2017-12-13T11:27:09.309Z,11.01
2017-12-13T11:28:09.216Z,11.01
2017-12-13T11:29:09.135Z,11.13
2017-12-13T11:30:09.050Z,11.10
2017-12-13T11:31:08.959Z,11.34
2017-12-13T11:32:08.882Z,11.31
2017-12-13T11:33:08.787Z,11.09
2017-12-13T11:34:08.839Z,11.17
2017-12-13T11:35:08.674Z,11.27
2017-12-13T11:36:08.556Z,11.34
2017-12-13T11:37:08.457Z,11.09
2017-12-13T11:38:08.366Z,10.88
2017-12-13T11:39:08.288Z,10.86
2017-12-13T11:40:08.199Z,11.20
2017-12-13T11:41:08.108Z,10.99
2017-12-13T11:42:08.038Z,11.09
2017-12-13T11:43:07.939Z,11.41
2017-12-13T11:44:07.866Z,11.35
2017-12-13T11:45:07.784Z,11.25
2017-12-13T11:46:07.710Z,11.67
2017-12-13T11:47:07.593Z,11.93
2017-12-13T11:48:07.543Z,11.70
2017-12-13T11:49:07.434Z,11.70
2017-12-13T11:50:07.342Z,11.90
2017-12-13T11:51:07.250Z,11.64
2017-12-13T11:52:07.186Z,11.19
2017-12-13T11:53:07.092Z,11.59
2017-12-13T11:54:07.026Z,11.74
2017-12-13T11:55:06.911Z,11.31
2017-12-13T11:56:06.818Z,10.70
2017-12-13T11:57:06.742Z,10.73
2017-12-13T11:58:06.665Z,10.53
2017-12-13T11:59:06.574Z,10.60
2017-12-13T12:00:06.484Z,10.68
2017-12-13T12:01:06.398Z,10.86
2017-12-13T12:02:06.314Z,11.06
2017-12-13T12:03:06.287Z,10.89
2017-12-13T12:04:07.135Z,10.78
2017-12-13T12:05:06.060Z,10.59
2017-12-13T12:06:05.963Z,10.76
2017-12-13T12:07:05.900Z,10.56
2017-12-13T12:08:05.794Z,10.51
2017-12-13T12:09:05.714Z,10.36
2017-12-13T12:10:05.617Z,10.74
2017-12-13T12:11:05.541Z,10.58
2017-12-13T12:12:05.434Z,10.42
2017-12-13T12:13:05.353Z,10.44
2017-12-13T12:14:05.262Z,10.47
2017-12-13T12:15:05.174Z,10.52
2017-12-13T12:16:05.086Z,10.66
2017-12-13T12:17:05.013Z,10.68
2017-12-13T12:18:04.933Z,10.62
2017-12-13T12:19:04.837Z,10.46
2017-12-13T12:20:04.753Z,10.52
2017-12-13T12:21:04.658Z,10.46
2017-12-13T12:22:04.612Z,10.53
2017-12-13T12:23:04.498Z,10.34
2017-12-13T12:24:04.396Z,10.39
2017-12-13T12:25:04.387Z,10.58
2017-12-13T12:26:04.307Z,10.53
2017-12-13T12:27:04.186Z,10.56
2017-12-13T12:28:04.104Z,10.66
2017-12-13T12:29:03.994Z,10.56
2017-12-13T12:30:03.890Z,10.51
2017-12-13T12:31:03.914Z,10.53
2017-12-13T12:32:03.796Z,10.26
2017-12-13T12:33:03.686Z,10.36
2017-12-13T12:34:03.556Z,10.42
2017-12-13T12:35:03.460Z,10.51
2017-12-13T12:36:03.363Z,10.43
2017-12-13T12:37:03.287Z,10.19
2017-12-13T12:38:03.213Z,9.81
2017-12-13T12:39:03.115Z,10.10
2017-12-13T12:40:03.039Z,10.14
2017-12-13T12:41:02.934Z,10.03
2017-12-13T12:42:02.845Z,10.00
2017-12-13T12:43:02.764Z,10.01
2017-12-13T12:44:02.673Z,10.09
2017-12-13T12:45:02.591Z,9.99
2017-12-13T12:46:02.498Z,10.00
2017-12-13T12:47:02.414Z,10.19
2017-12-13T12:48:02.339Z,10.04
2017-12-13T12:49:02.237Z,10.10
2017-12-13T12:50:02.158Z,10.07
2017-12-13T12:51:02.098Z,10.09
2017-12-13T12:52:01.980Z,10.14
2017-12-13T12:53:01.896Z,10.07
2017-12-13T12:54:01.811Z,9.89
2017-12-13T12:55:01.719Z,9.94
2017-12-13T12:56:01.626Z,9.91
2017-12-13T12:57:01.546Z,9.66
2017-12-13T12:58:01.466Z,9.82
2017-12-13T12:59:01.376Z,9.75
2017-12-13T13:00:01.293Z,9.73
2017-12-13T13:01:01.201Z,9.67
2017-12-13T13:02:01.127Z,9.57
2017-12-13T13:03:01.733Z,9.43
2017-12-13T13:04:00.943Z,9.42
2017-12-13T13:05:00.857Z,9.67
2017-12-13T13:06:00.756Z,9.75
2017-12-13T13:07:00.676Z,9.40
2017-12-13T13:08:00.601Z,9.46